createdAt,value
2022-12-29T00:01:00.531Z,3.30
2022-12-29T00:03:27.711Z,3.30
2022-12-29T00:05:59.588Z,3.30
2022-12-29T00:08:41.046Z,3.30
2022-12-29T00:11:14.372Z,3.30
2022-12-29T00:14:00.639Z,3.30
2022-12-29T00:16:28.699Z,3.40
2022-12-29T00:18:56.181Z,3.50
2022-12-29T00:21:43.127Z,3.60
2022-12-29T00:24:28.227Z,3.70
2022-12-29T00:27:23.707Z,3.90
2022-12-29T00:30:09.934Z,4.10
2022-12-29T00:32:55.967Z,4.10
2022-12-29T00:35:26.169Z,4.20
2022-12-29T00:38:13.842Z,4.30
2022-12-29T00:41:00.352Z,4.40
2022-12-29T00:43:45.958Z,4.50
2022-12-29T00:46:19.428Z,4.60
2022-12-29T00:49:05.581Z,4.70
2022-12-29T00:51:32.898Z,4.70
2022-12-29T00:54:00.059Z,4.80
2022-12-29T00:56:27.067Z,4.80
2022-12-29T00:58:54.344Z,4.80
2022-12-29T01:01:21.868Z,4.90
2022-12-29T01:03:49.196Z,4.90
2022-12-29T01:06:16.588Z,4.90
2022-12-29T01:08:45.496Z,4.80
2022-12-29T01:11:14.034Z,4.90
2022-12-29T01:13:42.403Z,4.90
2022-12-29T01:16:11.992Z,4.90
2022-12-29T01:18:39.252Z,4.80
2022-12-29T01:21:07.215Z,4.80
2022-12-29T01:23:34.419Z,4.80
2022-12-29T01:26:15.007Z,4.70
2022-12-29T01:28:42.675Z,4.70
2022-12-29T01:31:11.654Z,4.70
2022-12-29T01:33:39.047Z,4.70
2022-12-29T01:36:08.925Z,4.80
2022-12-29T01:38:37.953Z,4.70
2022-12-29T01:41:06.783Z,4.70
2022-12-29T01:43:45.741Z,4.70
2022-12-29T01:46:25.145Z,4.70
2022-12-29T01:48:59.320Z,4.70
2022-12-29T01:51:29.180Z,4.60
2022-12-29T01:53:59.571Z,4.70
2022-12-29T01:56:27.328Z,4.60
2022-12-29T01:59:03.998Z,4.60
2022-12-29T02:01:31.485Z,4.60
2022-12-29T02:04:05.795Z,4.70
2022-12-29T02:06:41.032Z,4.70
2022-12-29T02:09:08.500Z,4.70
2022-12-29T02:11:37.430Z,4.80
2022-12-29T02:14:11.179Z,4.80
2022-12-29T02:16:44.537Z,4.80
2022-12-29T02:19:34.014Z,4.90
2022-12-29T02:22:04.373Z,4.90
2022-12-29T02:24:47.187Z,4.90
2022-12-29T02:27:29.315Z,4.90
2022-12-29T02:30:13.042Z,4.90
2022-12-29T02:33:13.492Z,4.90
2022-12-29T02:36:03.133Z,4.90
2022-12-29T02:38:42.101Z,4.90
2022-12-29T02:41:31.428Z,4.80
2022-12-29T02:44:18.895Z,4.70
2022-12-29T02:47:30.171Z,4.60
2022-12-29T02:50:09.934Z,4.30
2022-12-29T02:52:49.939Z,4.20
2022-12-29T02:55:17.230Z,4.10
2022-12-29T02:57:44.450Z,4.10
2022-12-29T03:00:18.336Z,4.00
2022-12-29T03:03:13.553Z,4.00
2022-12-29T03:06:00.696Z,4.00
2022-12-29T03:08:53.215Z,4.00
2022-12-29T03:11:38.922Z,4.00
2022-12-29T03:14:42.973Z,4.10
2022-12-29T03:17:17.900Z,4.10
2022-12-29T03:19:52.506Z,4.30
2022-12-29T03:22:29.200Z,4.30
2022-12-29T03:25:13.041Z,4.40
2022-12-29T03:28:11.173Z,4.50
2022-12-29T03:30:44.351Z,4.40
2022-12-29T03:33:17.315Z,4.30
2022-12-29T03:35:50.226Z,4.20
2022-12-29T03:38:24.415Z,4.10
2022-12-29T03:40:57.869Z,4.10
2022-12-29T03:43:29.001Z,4.20
2022-12-29T03:45:57.231Z,4.20
2022-12-29T03:48:24.539Z,4.30
2022-12-29T03:50:54.729Z,4.30
2022-12-29T03:53:23.345Z,4.30
2022-12-29T03:55:51.248Z,4.30
2022-12-29T03:58:18.762Z,4.20
2022-12-29T04:01:04.489Z,4.20
2022-12-29T04:03:35.508Z,4.20
2022-12-29T04:06:03.211Z,4.20
2022-12-29T04:08:38.885Z,4.20
2022-12-29T04:11:07.417Z,4.20
2022-12-29T04:13:35.969Z,4.30
2022-12-29T04:16:13.837Z,4.30
2022-12-29T04:18:42.000Z,4.40
2022-12-29T04:21:09.572Z,4.40
2022-12-29T04:23:40.829Z,4.40
2022-12-29T04:26:11.298Z,4.40
2022-12-29T04:28:51.689Z,4.50
2022-12-29T04:31:39.611Z,4.50
2022-12-29T04:34:10.771Z,4.60
2022-12-29T04:36:42.650Z,4.60
2022-12-29T04:39:10.340Z,4.70
2022-12-29T04:41:40.092Z,4.80
2022-12-29T04:44:10.249Z,5.00
2022-12-29T04:47:00.420Z,5.10
2022-12-29T04:49:56.243Z,5.20
2022-12-29T04:52:43.831Z,5.30
2022-12-29T04:55:16.986Z,5.40
2022-12-29T04:57:46.114Z,5.40
2022-12-29T05:00:19.066Z,5.50
2022-12-29T05:02:46.779Z,5.40
2022-12-29T05:05:15.381Z,5.30
2022-12-29T05:07:46.714Z,5.30
2022-12-29T05:10:16.689Z,5.20
2022-12-29T05:12:46.745Z,5.20
2022-12-29T05:15:15.525Z,5.20
2022-12-29T05:17:44.471Z,5.20
2022-12-29T05:20:14.388Z,5.20
2022-12-29T05:22:43.131Z,5.20
2022-12-29T05:25:11.014Z,5.30
2022-12-29T05:27:52.198Z,5.30
2022-12-29T05:30:45.549Z,5.30
2022-12-29T05:33:12.923Z,5.40
2022-12-29T05:35:41.056Z,5.40
2022-12-29T05:38:08.423Z,5.50
2022-12-29T05:40:35.742Z,5.40
2022-12-29T05:43:07.742Z,5.40
2022-12-29T05:46:01.316Z,5.30
2022-12-29T05:48:54.781Z,5.20
2022-12-29T05:51:37.929Z,5.10
2022-12-29T05:54:05.358Z,5.00
2022-12-29T05:56:32.505Z,4.80
2022-12-29T05:59:01.948Z,4.70
2022-12-29T06:01:29.140Z,4.70
2022-12-29T06:03:56.532Z,4.50
2022-12-29T06:06:23.866Z,4.60
2022-12-29T06:08:52.040Z,4.60
2022-12-29T06:11:20.373Z,4.60
2022-12-29T06:13:54.497Z,4.60
2022-12-29T06:16:21.876Z,4.70
2022-12-29T06:18:51.561Z,4.70
2022-12-29T06:21:18.677Z,4.70
2022-12-29T06:23:48.513Z,4.70
2022-12-29T06:26:15.538Z,4.70
2022-12-29T06:28:42.698Z,4.70
2022-12-29T06:31:13.237Z,4.60
2022-12-29T06:33:40.585Z,4.60
2022-12-29T06:36:08.506Z,4.70
2022-12-29T06:38:36.367Z,4.70
2022-12-29T06:41:03.754Z,4.80
2022-12-29T06:43:39.384Z,4.80
2022-12-29T06:46:20.261Z,4.80
2022-12-29T06:48:47.592Z,4.90
2022-12-29T06:51:14.605Z,4.90
2022-12-29T06:53:41.746Z,4.90
2022-12-29T06:56:09.201Z,4.80
2022-12-29T06:58:36.517Z,4.90
2022-12-29T07:01:03.796Z,5.00
2022-12-29T07:03:31.045Z,5.10
2022-12-29T07:05:59.284Z,5.30
2022-12-29T07:08:26.460Z,5.50
2022-12-29T07:10:53.625Z,5.60
2022-12-29T07:13:20.746Z,5.60
2022-12-29T07:15:47.892Z,5.70
2022-12-29T07:18:15.047Z,5.70
2022-12-29T07:20:42.478Z,5.80
2022-12-29T07:23:09.839Z,5.80
2022-12-29T07:25:37.332Z,5.90
2022-12-29T07:28:05.228Z,5.90
2022-12-29T07:30:32.402Z,6.00
2022-12-29T07:32:59.615Z,6.10
2022-12-29T07:35:26.756Z,6.00
2022-12-29T07:37:53.990Z,5.80
2022-12-29T07:40:21.184Z,5.70
2022-12-29T07:42:48.464Z,5.70
2022-12-29T07:45:17.017Z,5.70
2022-12-29T07:48:03.875Z,5.80
2022-12-29T07:50:31.048Z,5.90
2022-12-29T07:52:58.466Z,6.00
2022-12-29T07:55:25.548Z,6.00
2022-12-29T07:57:56.273Z,6.00
2022-12-29T08:00:26.583Z,6.10
2022-12-29T08:02:53.869Z,6.20
2022-12-29T08:05:20.977Z,6.40
2022-12-29T08:07:48.434Z,6.80
2022-12-29T08:10:16.610Z,6.80
2022-12-29T08:12:44.717Z,6.90
2022-12-29T08:15:13.276Z,7.00
2022-12-29T08:17:40.698Z,7.20
2022-12-29T08:20:08.401Z,7.40
2022-12-29T08:22:35.776Z,7.60
2022-12-29T08:25:02.816Z,7.70
2022-12-29T08:27:29.943Z,7.70
2022-12-29T08:29:56.917Z,7.50
2022-12-29T08:32:24.136Z,7.40
2022-12-29T08:34:51.668Z,7.40
2022-12-29T08:37:18.699Z,7.40
2022-12-29T08:39:45.923Z,7.60
2022-12-29T08:42:13.022Z,7.90
2022-12-29T08:44:40.205Z,8.10
2022-12-29T08:47:07.449Z,8.30
2022-12-29T08:49:34.810Z,8.50
2022-12-29T08:52:01.931Z,8.70
2022-12-29T08:54:29.241Z,9.00
2022-12-29T08:56:56.419Z,9.30
2022-12-29T08:59:32.048Z,9.30
2022-12-29T09:01:59.826Z,8.80
2022-12-29T09:04:28.517Z,8.70
2022-12-29T09:06:55.716Z,8.80
2022-12-29T09:09:23.225Z,9.20
2022-12-29T09:11:50.591Z,9.70
2022-12-29T09:14:17.725Z,10.20
2022-12-29T09:17:03.442Z,10.50
2022-12-29T09:19:31.719Z,11.00
2022-12-29T09:21:58.672Z,11.50
2022-12-29T09:24:25.796Z,11.70
2022-12-29T09:26:53.320Z,11.80
2022-12-29T09:29:20.831Z,12.10
2022-12-29T09:31:47.994Z,12.10
2022-12-29T09:34:15.145Z,12.00
2022-12-29T09:36:42.153Z,12.20
2022-12-29T09:39:09.756Z,12.50
2022-12-29T09:41:42.565Z,13.00
2022-12-29T09:44:45.210Z,13.20
2022-12-29T09:47:15.722Z,13.20
2022-12-29T09:49:55.752Z,13.70
2022-12-29T09:52:53.581Z,13.70
2022-12-29T09:55:23.542Z,14.10
2022-12-29T09:57:58.591Z,14.40
2022-12-29T10:00:55.126Z,14.40
2022-12-29T10:03:26.044Z,14.30
2022-12-29T10:06:26.027Z,13.90
2022-12-29T10:09:02.758Z,14.00
2022-12-29T10:11:41.839Z,13.50
2022-12-29T10:14:35.756Z,13.20
2022-12-29T10:17:44.428Z,13.50
2022-12-29T10:20:29.970Z,13.80
2022-12-29T10:23:25.378Z,13.70
2022-12-29T10:25:56.667Z,13.80
2022-12-29T10:28:34.887Z,13.60
2022-12-29T10:31:08.729Z,13.80
2022-12-29T10:33:40.438Z,13.80
2022-12-29T10:36:39.816Z,13.90
2022-12-29T10:39:20.680Z,13.60
2022-12-29T10:41:53.902Z,13.70
2022-12-29T10:44:21.748Z,14.20
2022-12-29T10:46:58.326Z,14.10
2022-12-29T10:49:27.718Z,14.10
2022-12-29T10:51:58.191Z,13.90
2022-12-29T10:54:33.925Z,13.90
2022-12-29T10:57:14.911Z,14.00
2022-12-29T10:59:42.786Z,13.60
2022-12-29T11:02:13.363Z,13.40
2022-12-29T11:04:50.385Z,13.20
2022-12-29T11:07:26.970Z,12.90
2022-12-29T11:09:55.087Z,12.80
2022-12-29T11:12:29.513Z,12.90
2022-12-29T11:15:08.864Z,13.00
2022-12-29T11:17:52.959Z,12.90
2022-12-29T11:20:32.298Z,12.80
2022-12-29T11:23:00.739Z,12.80
2022-12-29T11:25:28.302Z,12.70
2022-12-29T11:28:16.627Z,12.80
2022-12-29T11:30:44.466Z,12.60
2022-12-29T11:33:11.497Z,12.70
2022-12-29T11:35:44.450Z,12.50
2022-12-29T11:38:23.926Z,12.50
2022-12-29T11:40:51.353Z,12.50
2022-12-29T11:43:34.682Z,12.60
2022-12-29T11:46:05.975Z,12.80
2022-12-29T11:48:43.769Z,12.80
2022-12-29T11:51:12.900Z,12.90
2022-12-29T11:53:53.446Z,12.70
2022-12-29T11:56:39.981Z,12.70
2022-12-29T11:59:32.589Z,12.70
2022-12-29T12:02:02.026Z,12.80
2022-12-29T12:04:37.553Z,12.50
2022-12-29T12:07:16.751Z,12.40
2022-12-29T12:09:50.320Z,12.30
2022-12-29T12:12:42.531Z,12.30
2022-12-29T12:15:18.944Z,12.30
2022-12-29T12:18:09.532Z,12.30
2022-12-29T12:20:45.745Z,12.30
2022-12-29T12:23:26.631Z,12.30
2022-12-29T12:26:17.717Z,12.30
2022-12-29T12:29:11.846Z,12.40
2022-12-29T12:32:00.499Z,12.30
2022-12-29T12:34:38.690Z,12.30
2022-12-29T12:37:36.809Z,12.10
2022-12-29T12:40:48.791Z,12.00
2022-12-29T12:43:42.119Z,12.00
2022-12-29T12:46:35.886Z,12.00
2022-12-29T12:49:06.154Z,12.00
2022-12-29T12:51:45.098Z,12.00
2022-12-29T12:54:33.657Z,12.00
2022-12-29T12:57:26.852Z,11.90
2022-12-29T13:00:01.949Z,11.90
2022-12-29T13:02:44.325Z,11.90
2022-12-29T13:05:14.528Z,11.90
2022-12-29T13:08:08.294Z,11.90
2022-12-29T13:10:49.856Z,11.80
2022-12-29T13:13:46.596Z,11.80
2022-12-29T13:16:43.149Z,11.90
2022-12-29T13:19:29.059Z,11.90
2022-12-29T13:22:10.877Z,12.00
2022-12-29T13:24:44.725Z,11.90
2022-12-29T13:27:40.333Z,11.90
2022-12-29T13:30:12.581Z,11.80
2022-12-29T13:32:49.174Z,11.80
2022-12-29T13:35:46.631Z,11.70
2022-12-29T13:39:09.378Z,11.70
2022-12-29T13:41:45.563Z,11.70
2022-12-29T13:44:59.846Z,11.80
2022-12-29T13:47:47.516Z,11.70
2022-12-29T13:50:20.849Z,11.70
2022-12-29T13:53:19.544Z,11.60
2022-12-29T13:56:28.010Z,11.60
2022-12-29T13:59:04.832Z,11.60
2022-12-29T14:01:48.083Z,11.50
2022-12-29T14:04:22.876Z,11.40
2022-12-29T14:07:03.854Z,11.30
2022-12-29T14:09:45.943Z,11.30
2022-12-29T14:12:37.676Z,11.20
2022-12-29T14:15:12.603Z,11.10
2022-12-29T14:18:00.573Z,11.00
2022-12-29T14:20:27.866Z,11.00
2022-12-29T14:23:09.585Z,10.90
2022-12-29T14:25:57.345Z,10.80
2022-12-29T14:28:29.297Z,10.80
2022-12-29T14:30:58.544Z,10.80
2022-12-29T14:33:30.571Z,10.80
2022-12-29T14:36:18.361Z,10.70
2022-12-29T14:38:47.241Z,10.70
2022-12-29T14:41:30.615Z,10.60
2022-12-29T14:44:19.675Z,10.50
2022-12-29T14:46:58.559Z,10.50
2022-12-29T14:49:29.396Z,10.50
2022-12-29T14:52:25.868Z,10.40
2022-12-29T14:54:54.562Z,10.40
2022-12-29T14:57:24.055Z,10.30
2022-12-29T14:59:56.137Z,10.30
2022-12-29T15:02:27.524Z,10.30
2022-12-29T15:04:59.541Z,10.20
2022-12-29T15:07:29.243Z,10.20
2022-12-29T15:10:04.419Z,10.20
2022-12-29T15:12:34.547Z,10.20
2022-12-29T15:15:02.596Z,10.20
2022-12-29T15:17:31.985Z,10.20
2022-12-29T15:20:01.658Z,10.20
2022-12-29T15:22:29.191Z,10.10
2022-12-29T15:24:57.988Z,10.00
2022-12-29T15:27:28.357Z,10.00
2022-12-29T15:30:04.013Z,9.90
2022-12-29T15:32:43.396Z,9.80
2022-12-29T15:35:29.370Z,9.70
2022-12-29T15:37:57.337Z,9.70
2022-12-29T15:40:30.173Z,9.60
2022-12-29T15:43:06.583Z,9.50
2022-12-29T15:45:35.779Z,9.50
2022-12-29T15:48:04.665Z,9.40
2022-12-29T15:50:34.953Z,9.40
2022-12-29T15:53:03.424Z,9.30
2022-12-29T15:55:42.793Z,9.40
2022-12-29T15:58:22.953Z,9.30
2022-12-29T16:00:54.351Z,9.30
2022-12-29T16:03:22.501Z,9.30
2022-12-29T16:05:58.456Z,9.30
2022-12-29T16:08:32.431Z,9.30
2022-12-29T16:11:01.639Z,9.30
2022-12-29T16:13:40.422Z,9.30
2022-12-29T16:16:31.047Z,9.20
2022-12-29T16:18:59.217Z,9.10
2022-12-29T16:21:30.051Z,9.00
2022-12-29T16:24:06.123Z,8.90
2022-12-29T16:26:33.582Z,8.90
2022-12-29T16:29:08.642Z,8.80
2022-12-29T16:32:06.067Z,8.80
2022-12-29T16:34:39.009Z,8.70
2022-12-29T16:37:30.441Z,8.60
2022-12-29T16:40:17.834Z,8.60
2022-12-29T16:42:51.006Z,8.50
2022-12-29T16:45:24.699Z,8.50
2022-12-29T16:48:07.355Z,8.50
2022-12-29T16:50:36.873Z,8.50
2022-12-29T16:53:05.354Z,8.40
2022-12-29T16:55:33.882Z,8.40
2022-12-29T16:58:01.624Z,8.30
2022-12-29T17:00:32.985Z,8.30
2022-12-29T17:03:02.002Z,8.20
2022-12-29T17:05:29.238Z,8.20
2022-12-29T17:08:01.913Z,8.20
2022-12-29T17:10:49.915Z,8.20
2022-12-29T17:13:17.181Z,8.20
2022-12-29T17:15:44.406Z,8.30
2022-12-29T17:18:14.225Z,8.30
2022-12-29T17:20:41.736Z,8.30
2022-12-29T17:23:19.940Z,8.30
2022-12-29T17:25:51.755Z,8.30
2022-12-29T17:28:23.639Z,8.30
2022-12-29T17:30:53.844Z,8.30
2022-12-29T17:33:21.896Z,8.30
2022-12-29T17:35:54.862Z,8.30
2022-12-29T17:38:25.274Z,8.20
2022-12-29T17:40:52.807Z,8.20
2022-12-29T17:43:20.569Z,8.20
2022-12-29T17:45:53.928Z,8.20
2022-12-29T17:48:21.436Z,8.20
2022-12-29T17:50:51.825Z,8.10
2022-12-29T17:53:26.243Z,8.10
2022-12-29T17:55:53.613Z,8.10
2022-12-29T17:58:33.914Z,8.00
2022-12-29T18:01:03.068Z,8.00
2022-12-29T18:03:36.375Z,8.00
2022-12-29T18:06:06.818Z,7.90
2022-12-29T18:08:35.905Z,7.90
2022-12-29T18:11:04.230Z,7.90
2022-12-29T18:13:45.590Z,8.00
2022-12-29T18:16:14.280Z,8.00
2022-12-29T18:18:41.778Z,7.90
2022-12-29T18:21:17.015Z,7.80
2022-12-29T18:23:45.051Z,7.80
2022-12-29T18:26:19.678Z,7.80
2022-12-29T18:28:51.647Z,7.80
2022-12-29T18:31:24.428Z,7.80
2022-12-29T18:33:53.181Z,7.80
2022-12-29T18:36:20.913Z,7.90
2022-12-29T18:38:48.583Z,7.80
2022-12-29T18:41:20.810Z,7.80
2022-12-29T18:43:48.119Z,7.80
2022-12-29T18:46:22.091Z,7.70
2022-12-29T18:48:51.294Z,7.60
2022-12-29T18:51:21.580Z,7.60
2022-12-29T18:53:49.462Z,7.50
2022-12-29T18:56:16.760Z,7.60
2022-12-29T18:58:44.063Z,7.60
2022-12-29T19:01:22.782Z,7.60
2022-12-29T19:03:50.351Z,7.60
2022-12-29T19:06:17.744Z,7.60
2022-12-29T19:08:44.917Z,7.60
2022-12-29T19:11:12.027Z,7.60
2022-12-29T19:13:40.445Z,7.60
2022-12-29T19:16:12.547Z,7.50
2022-12-29T19:18:44.614Z,7.50
2022-12-29T19:21:12.796Z,7.50
2022-12-29T19:23:40.142Z,7.40
2022-12-29T19:26:07.361Z,7.40
2022-12-29T19:28:34.500Z,7.50
2022-12-29T19:31:03.077Z,7.50
2022-12-29T19:33:30.330Z,7.50
2022-12-29T19:36:02.728Z,7.50
2022-12-29T19:38:29.981Z,7.50
2022-12-29T19:40:57.377Z,7.50
2022-12-29T19:43:24.697Z,7.60
2022-12-29T19:45:53.434Z,7.50
2022-12-29T19:48:21.338Z,7.40
2022-12-29T19:50:48.667Z,7.40
2022-12-29T19:53:16.431Z,7.30
2022-12-29T19:55:47.930Z,7.30
2022-12-29T19:58:15.294Z,7.30
2022-12-29T20:00:43.704Z,7.30
2022-12-29T20:03:11.532Z,7.30
2022-12-29T20:05:39.687Z,7.40
2022-12-29T20:08:07.209Z,7.40
2022-12-29T20:10:34.693Z,7.50
2022-12-29T20:13:02.837Z,7.60
2022-12-29T20:15:29.830Z,7.60
2022-12-29T20:18:14.444Z,7.70
2022-12-29T20:20:42.676Z,7.80
2022-12-29T20:23:10.114Z,7.90
2022-12-29T20:25:46.146Z,7.90
2022-12-29T20:28:14.745Z,8.00
2022-12-29T20:30:41.902Z,8.00
2022-12-29T20:33:09.107Z,8.00
2022-12-29T20:35:37.032Z,7.90
2022-12-29T20:38:04.748Z,7.90
2022-12-29T20:40:32.266Z,7.90
2022-12-29T20:43:00.803Z,8.00
2022-12-29T20:45:28.143Z,8.10
2022-12-29T20:47:55.361Z,8.20
2022-12-29T20:50:22.553Z,8.20
2022-12-29T20:52:49.707Z,8.30
2022-12-29T20:55:16.852Z,8.40
2022-12-29T20:58:21.883Z,8.40
2022-12-29T21:00:32.839Z,8.50
2022-12-29T21:03:01.165Z,8.50
2022-12-29T21:05:28.914Z,8.50
2022-12-29T21:07:59.070Z,8.50
2022-12-29T21:10:26.268Z,8.50
2022-12-29T21:12:53.988Z,8.50
2022-12-29T21:15:21.134Z,8.50
2022-12-29T21:17:48.241Z,8.50
2022-12-29T21:20:20.291Z,8.50
2022-12-29T21:22:48.723Z,8.50
2022-12-29T21:25:15.970Z,8.50
2022-12-29T21:27:45.956Z,8.50
2022-12-29T21:30:13.755Z,8.50
2022-12-29T21:32:41.617Z,8.40
2022-12-29T21:35:09.998Z,8.30
2022-12-29T21:37:37.627Z,8.20
2022-12-29T21:40:05.891Z,8.20
2022-12-29T21:42:34.078Z,8.10
2022-12-29T21:45:20.985Z,8.00
2022-12-29T21:48:07.515Z,7.90
2022-12-29T21:50:59.469Z,7.80
2022-12-29T21:53:38.016Z,7.70
2022-12-29T21:56:06.346Z,7.80
2022-12-29T21:58:52.111Z,7.90
2022-12-29T22:01:37.965Z,7.90
2022-12-29T22:04:23.700Z,7.80
2022-12-29T22:07:09.965Z,7.70
2022-12-29T22:09:55.746Z,7.60
2022-12-29T22:12:41.453Z,7.50
2022-12-29T22:15:08.982Z,7.40
2022-12-29T22:17:41.241Z,7.30
2022-12-29T22:20:11.198Z,7.30
2022-12-29T22:22:38.309Z,7.20
2022-12-29T22:25:06.449Z,7.20
2022-12-29T22:27:33.633Z,7.10
2022-12-29T22:30:00.816Z,7.10
2022-12-29T22:32:28.205Z,7.00
2022-12-29T22:34:55.347Z,7.00
2022-12-29T22:37:22.400Z,7.10
2022-12-29T22:39:49.765Z,7.00
2022-12-29T22:42:17.049Z,7.00
2022-12-29T22:44:44.375Z,7.00
2022-12-29T22:47:11.535Z,7.00
2022-12-29T22:49:38.722Z,6.90
2022-12-29T22:52:05.989Z,6.90
2022-12-29T22:54:33.208Z,6.80
2022-12-29T22:57:00.269Z,6.80
2022-12-29T22:59:27.483Z,6.70
2022-12-29T23:01:54.974Z,6.70
2022-12-29T23:07:09.279Z,6.80
2022-12-29T23:09:36.484Z,6.80
2022-12-29T23:12:03.651Z,6.70
2022-12-29T23:14:30.704Z,6.70
2022-12-29T23:16:57.840Z,6.70
2022-12-29T23:19:25.157Z,6.60
2022-12-29T23:21:52.484Z,6.60
2022-12-29T23:24:19.574Z,6.60
2022-12-29T23:26:48.150Z,6.60
2022-12-29T23:29:18.206Z,6.60
2022-12-29T23:31:46.485Z,6.50
2022-12-29T23:34:15.951Z,6.50
2022-12-29T23:36:43.318Z,6.60
2022-12-29T23:39:15.698Z,6.70
2022-12-29T23:41:42.946Z,6.70
2022-12-29T23:44:10.148Z,6.80
2022-12-29T23:46:37.202Z,6.80
2022-12-29T23:49:04.414Z,6.70
2022-12-29T23:51:31.889Z,6.70
2022-12-29T23:53:58.951Z,6.60
2022-12-29T23:56:26.272Z,6.60
2022-12-29T23:58:54.550Z,6.50
